sensor_id;sensor_type;location;lat;lon;timestamp;P1;durP1;ratioP1;P2;durP2;ratioP2
27383;SDS011;14851;51.166;4.760;2023-08-30T00:01:04;7.60;;;6.28;;
27383;SDS011;14851;51.166;4.760;2023-08-30T00:03:33;6.97;;;6.22;;
27383;SDS011;14851;51.166;4.760;2023-08-30T00:06:04;7.25;;;6.00;;
27383;SDS011;14851;51.166;4.760;2023-08-30T00:08:33;11.17;;;6.20;;
27383;SDS011;14851;51.166;4.760;2023-08-30T00:10:59;9.73;;;5.97;;
27383;SDS011;14851;51.166;4.760;2023-08-30T00:13:28;7.32;;;6.10;;
27383;SDS011;14851;51.166;4.760;2023-08-30T00:15:55;8.20;;;6.90;;
27383;SDS011;14851;51.166;4.760;2023-08-30T00:18:21;12.57;;;7.13;;
27383;SDS011;14851;51.166;4.760;2023-08-30T00:20:47;8.23;;;6.53;;
27383;SDS011;14851;51.166;4.760;2023-08-30T00:23:13;7.68;;;6.85;;
27383;SDS011;14851;51.166;4.760;2023-08-30T00:25:39;9.63;;;6.30;;
27383;SDS011;14851;51.166;4.760;2023-08-30T00:28:05;9.13;;;6.13;;
27383;SDS011;14851;51.166;4.760;2023-08-30T00:30:33;9.38;;;8.05;;
27383;SDS011;14851;51.166;4.760;2023-08-30T00:33:02;10.88;;;7.18;;
27383;SDS011;14851;51.166;4.760;2023-08-30T00:35:29;6.35;;;5.60;;
27383;SDS011;14851;51.166;4.760;2023-08-30T00:37:55;7.10;;;5.97;;
27383;SDS011;14851;51.166;4.760;2023-08-30T00:40:24;7.38;;;6.50;;
27383;SDS011;14851;51.166;4.760;2023-08-30T00:42:52;7.55;;;6.00;;
27383;SDS011;14851;51.166;4.760;2023-08-30T00:45:20;8.52;;;6.43;;
27383;SDS011;14851;51.166;4.760;2023-08-30T00:47:46;7.50;;;6.38;;
27383;SDS011;14851;51.166;4.760;2023-08-30T00:50:12;8.68;;;6.88;;
27383;SDS011;14851;51.166;4.760;2023-08-30T00:52:39;6.75;;;6.05;;
27383;SDS011;14851;51.166;4.760;2023-08-30T00:55:07;7.28;;;5.90;;
27383;SDS011;14851;51.166;4.760;2023-08-30T00:57:35;7.88;;;6.63;;
27383;SDS011;14851;51.166;4.760;2023-08-30T01:00:01;7.35;;;6.15;;
27383;SDS011;14851;51.166;4.760;2023-08-30T01:02:30;7.85;;;6.22;;
27383;SDS011;14851;51.166;4.760;2023-08-30T01:04:56;8.07;;;6.55;;
27383;SDS011;14851;51.166;4.760;2023-08-30T01:07:23;8.55;;;7.45;;
27383;SDS011;14851;51.166;4.760;2023-08-30T01:09:49;10.07;;;7.53;;
27383;SDS011;14851;51.166;4.760;2023-08-30T01:12:28;8.32;;;6.68;;
27383;SDS011;14851;51.166;4.760;2023-08-30T01:15:21;9.35;;;6.20;;
27383;SDS011;14851;51.166;4.760;2023-08-30T01:17:48;11.07;;;7.03;;
27383;SDS011;14851;51.166;4.760;2023-08-30T01:20:16;7.85;;;7.03;;
27383;SDS011;14851;51.166;4.760;2023-08-30T01:27:53;8.27;;;7.32;;
27383;SDS011;14851;51.166;4.760;2023-08-30T01:30:21;8.15;;;7.35;;
27383;SDS011;14851;51.166;4.760;2023-08-30T01:32:52;9.15;;;7.18;;
27383;SDS011;14851;51.166;4.760;2023-08-30T01:35:18;10.48;;;7.20;;
27383;SDS011;14851;51.166;4.760;2023-08-30T01:37:45;9.65;;;7.50;;
27383;SDS011;14851;51.166;4.760;2023-08-30T01:40:12;11.73;;;7.75;;
27383;SDS011;14851;51.166;4.760;2023-08-30T01:42:41;10.70;;;7.70;;
27383;SDS011;14851;51.166;4.760;2023-08-30T01:45:13;9.15;;;7.57;;
27383;SDS011;14851;51.166;4.760;2023-08-30T01:47:40;9.75;;;8.18;;
27383;SDS011;14851;51.166;4.760;2023-08-30T01:50:09;9.75;;;8.10;;
27383;SDS011;14851;51.166;4.760;2023-08-30T01:52:37;9.88;;;7.50;;
27383;SDS011;14851;51.166;4.760;2023-08-30T01:55:05;8.73;;;7.85;;
27383;SDS011;14851;51.166;4.760;2023-08-30T01:57:33;9.43;;;7.97;;
27383;SDS011;14851;51.166;4.760;2023-08-30T01:59:59;9.40;;;8.32;;
27383;SDS011;14851;51.166;4.760;2023-08-30T02:02:28;10.63;;;8.13;;
27383;SDS011;14851;51.166;4.760;2023-08-30T02:04:57;12.13;;;8.70;;
27383;SDS011;14851;51.166;4.760;2023-08-30T02:07:36;10.48;;;8.90;;
27383;SDS011;14851;51.166;4.760;2023-08-30T02:10:34;9.77;;;8.77;;
27383;SDS011;14851;51.166;4.760;2023-08-30T02:13:02;11.30;;;9.10;;
27383;SDS011;14851;51.166;4.760;2023-08-30T02:15:33;13.15;;;9.18;;
27383;SDS011;14851;51.166;4.760;2023-08-30T02:18:00;10.27;;;9.15;;
27383;SDS011;14851;51.166;4.760;2023-08-30T02:20:28;10.38;;;8.93;;
27383;SDS011;14851;51.166;4.760;2023-08-30T02:22:59;10.50;;;9.45;;
27383;SDS011;14851;51.166;4.760;2023-08-30T02:25:29;10.15;;;8.75;;
27383;SDS011;14851;51.166;4.760;2023-08-30T02:27:57;9.55;;;8.60;;
27383;SDS011;14851;51.166;4.760;2023-08-30T02:30:22;11.32;;;9.32;;
27383;SDS011;14851;51.166;4.760;2023-08-30T02:32:48;13.15;;;9.63;;
27383;SDS011;14851;51.166;4.760;2023-08-30T02:35:16;10.20;;;9.05;;
27383;SDS011;14851;51.166;4.760;2023-08-30T02:40:13;10.48;;;8.50;;
27383;SDS011;14851;51.166;4.760;2023-08-30T02:42:39;14.65;;;9.48;;
27383;SDS011;14851;51.166;4.760;2023-08-30T02:45:05;9.98;;;8.93;;
27383;SDS011;14851;51.166;4.760;2023-08-30T02:47:32;12.57;;;9.23;;
27383;SDS011;14851;51.166;4.760;2023-08-30T02:49:59;11.18;;;8.75;;
27383;SDS011;14851;51.166;4.760;2023-08-30T02:52:32;9.80;;;8.80;;
27383;SDS011;14851;51.166;4.760;2023-08-30T02:54:58;11.27;;;8.63;;
27383;SDS011;14851;51.166;4.760;2023-08-30T02:57:27;11.05;;;8.85;;
27383;SDS011;14851;51.166;4.760;2023-08-30T02:59:56;11.40;;;8.07;;
27383;SDS011;14851;51.166;4.760;2023-08-30T03:02:21;10.25;;;9.00;;
27383;SDS011;14851;51.166;4.760;2023-08-30T03:04:47;10.15;;;8.82;;
27383;SDS011;14851;51.166;4.760;2023-08-30T03:07:14;11.18;;;8.77;;
27383;SDS011;14851;51.166;4.760;2023-08-30T03:09:40;13.35;;;8.30;;
27383;SDS011;14851;51.166;4.760;2023-08-30T03:12:06;10.63;;;8.85;;
27383;SDS011;14851;51.166;4.760;2023-08-30T03:14:34;10.88;;;8.63;;
27383;SDS011;14851;51.166;4.760;2023-08-30T03:17:00;9.32;;;8.35;;
27383;SDS011;14851;51.166;4.760;2023-08-30T03:19:26;11.63;;;8.85;;
27383;SDS011;14851;51.166;4.760;2023-08-30T03:21:52;10.35;;;9.15;;
27383;SDS011;14851;51.166;4.760;2023-08-30T03:24:18;9.90;;;8.77;;
27383;SDS011;14851;51.166;4.760;2023-08-30T03:26:46;10.18;;;8.90;;
27383;SDS011;14851;51.166;4.760;2023-08-30T03:29:12;9.38;;;8.48;;
27383;SDS011;14851;51.166;4.760;2023-08-30T03:31:38;10.45;;;8.85;;
27383;SDS011;14851;51.166;4.760;2023-08-30T03:34:04;10.07;;;8.90;;
27383;SDS011;14851;51.166;4.760;2023-08-30T03:36:30;14.70;;;9.00;;
27383;SDS011;14851;51.166;4.760;2023-08-30T03:38:56;11.85;;;8.02;;
27383;SDS011;14851;51.166;4.760;2023-08-30T03:41:22;9.95;;;8.43;;
27383;SDS011;14851;51.166;4.760;2023-08-30T03:43:51;11.07;;;7.60;;
27383;SDS011;14851;51.166;4.760;2023-08-30T03:46:19;11.40;;;7.90;;
27383;SDS011;14851;51.166;4.760;2023-08-30T03:48:45;8.45;;;7.55;;
27383;SDS011;14851;51.166;4.760;2023-08-30T03:51:11;11.55;;;7.82;;
27383;SDS011;14851;51.166;4.760;2023-08-30T03:53:40;8.48;;;7.70;;
27383;SDS011;14851;51.166;4.760;2023-08-30T03:56:08;8.73;;;7.90;;
27383;SDS011;14851;51.166;4.760;2023-08-30T03:58:34;11.02;;;7.60;;
27383;SDS011;14851;51.166;4.760;2023-08-30T04:01:00;10.75;;;7.50;;
27383;SDS011;14851;51.166;4.760;2023-08-30T04:03:26;7.93;;;7.13;;
27383;SDS011;14851;51.166;4.760;2023-08-30T04:05:56;11.77;;;7.30;;
27383;SDS011;14851;51.166;4.760;2023-08-30T04:08:22;8.70;;;7.65;;
27383;SDS011;14851;51.166;4.760;2023-08-30T04:10:51;10.98;;;7.03;;
27383;SDS011;14851;51.166;4.760;2023-08-30T04:13:18;10.93;;;8.07;;
27383;SDS011;14851;51.166;4.760;2023-08-30T04:15:47;8.18;;;7.38;;
27383;SDS011;14851;51.166;4.760;2023-08-30T04:18:13;9.65;;;6.38;;
27383;SDS011;14851;51.166;4.760;2023-08-30T04:20:44;9.95;;;6.88;;
27383;SDS011;14851;51.166;4.760;2023-08-30T04:23:10;7.88;;;6.45;;
27383;SDS011;14851;51.166;4.760;2023-08-30T04:25:37;8.93;;;6.32;;
27383;SDS011;14851;51.166;4.760;2023-08-30T04:28:04;10.20;;;7.32;;
27383;SDS011;14851;51.166;4.760;2023-08-30T04:30:30;8.93;;;6.57;;
27383;SDS011;14851;51.166;4.760;2023-08-30T04:32:56;9.07;;;7.25;;
27383;SDS011;14851;51.166;4.760;2023-08-30T04:35:22;10.00;;;7.25;;
27383;SDS011;14851;51.166;4.760;2023-08-30T04:37:48;11.27;;;7.72;;
27383;SDS011;14851;51.166;4.760;2023-08-30T04:40:16;12.82;;;7.63;;
27383;SDS011;14851;51.166;4.760;2023-08-30T04:42:43;13.05;;;7.53;;
27383;SDS011;14851;51.166;4.760;2023-08-30T04:45:09;11.15;;;8.15;;
27383;SDS011;14851;51.166;4.760;2023-08-30T04:47:37;11.38;;;8.05;;
27383;SDS011;14851;51.166;4.760;2023-08-30T04:50:04;16.85;;;8.27;;
27383;SDS011;14851;51.166;4.760;2023-08-30T04:52:32;12.65;;;8.13;;
27383;SDS011;14851;51.166;4.760;2023-08-30T04:54:59;14.60;;;8.65;;
27383;SDS011;14851;51.166;4.760;2023-08-30T04:57:26;11.68;;;7.97;;
27383;SDS011;14851;51.166;4.760;2023-08-30T04:59:54;11.70;;;7.65;;
27383;SDS011;14851;51.166;4.760;2023-08-30T05:02:21;13.20;;;8.35;;
27383;SDS011;14851;51.166;4.760;2023-08-30T05:04:57;14.90;;;8.90;;
27383;SDS011;14851;51.166;4.760;2023-08-30T05:07:23;12.60;;;7.85;;
27383;SDS011;14851;51.166;4.760;2023-08-30T05:09:49;15.65;;;8.77;;
27383;SDS011;14851;51.166;4.760;2023-08-30T05:12:15;13.90;;;8.55;;
27383;SDS011;14851;51.166;4.760;2023-08-30T05:14:41;13.25;;;8.18;;
27383;SDS011;14851;51.166;4.760;2023-08-30T05:17:07;15.18;;;7.80;;
27383;SDS011;14851;51.166;4.760;2023-08-30T05:19:33;15.10;;;8.30;;
27383;SDS011;14851;51.166;4.760;2023-08-30T05:21:59;11.38;;;7.70;;
27383;SDS011;14851;51.166;4.760;2023-08-30T05:24:26;13.88;;;7.95;;
27383;SDS011;14851;51.166;4.760;2023-08-30T05:26:56;12.73;;;7.20;;
27383;SDS011;14851;51.166;4.760;2023-08-30T05:29:25;10.80;;;7.43;;
27383;SDS011;14851;51.166;4.760;2023-08-30T05:31:51;14.40;;;8.40;;
27383;SDS011;14851;51.166;4.760;2023-08-30T05:34:39;12.25;;;7.60;;
27383;SDS011;14851;51.166;4.760;2023-08-30T05:37:24;14.40;;;8.30;;
27383;SDS011;14851;51.166;4.760;2023-08-30T05:40:01;15.13;;;8.32;;
27383;SDS011;14851;51.166;4.760;2023-08-30T05:42:31;12.82;;;8.13;;
27383;SDS011;14851;51.166;4.760;2023-08-30T05:44:57;13.57;;;9.00;;
27383;SDS011;14851;51.166;4.760;2023-08-30T05:47:23;12.85;;;7.72;;
27383;SDS011;14851;51.166;4.760;2023-08-30T05:49:49;11.68;;;7.70;;
27383;SDS011;14851;51.166;4.760;2023-08-30T05:52:15;12.15;;;8.18;;
27383;SDS011;14851;51.166;4.760;2023-08-30T05:54:41;14.07;;;8.65;;
27383;SDS011;14851;51.166;4.760;2023-08-30T05:57:08;13.25;;;8.18;;
27383;SDS011;14851;51.166;4.760;2023-08-30T05:59:35;12.60;;;8.23;;
27383;SDS011;14851;51.166;4.760;2023-08-30T06:02:01;13.45;;;7.95;;
27383;SDS011;14851;51.166;4.760;2023-08-30T06:04:27;13.77;;;7.68;;
27383;SDS011;14851;51.166;4.760;2023-08-30T06:06:53;13.00;;;8.25;;
27383;SDS011;14851;51.166;4.760;2023-08-30T06:09:19;15.73;;;8.13;;
27383;SDS011;14851;51.166;4.760;2023-08-30T06:11:47;14.70;;;9.02;;
27383;SDS011;14851;51.166;4.760;2023-08-30T06:14:13;13.73;;;8.20;;
27383;SDS011;14851;51.166;4.760;2023-08-30T06:16:40;13.43;;;7.57;;
27383;SDS011;14851;51.166;4.760;2023-08-30T06:21:36;12.73;;;7.63;;
27383;SDS011;14851;51.166;4.760;2023-08-30T06:24:02;11.80;;;7.45;;
27383;SDS011;14851;51.166;4.760;2023-08-30T06:26:28;11.15;;;8.20;;
27383;SDS011;14851;51.166;4.760;2023-08-30T06:28:54;11.75;;;7.38;;
27383;SDS011;14851;51.166;4.760;2023-08-30T06:31:20;11.95;;;7.43;;
27383;SDS011;14851;51.166;4.760;2023-08-30T06:33:46;11.27;;;7.50;;
27383;SDS011;14851;51.166;4.760;2023-08-30T06:36:13;9.75;;;7.00;;
27383;SDS011;14851;51.166;4.760;2023-08-30T06:38:42;10.10;;;7.15;;
27383;SDS011;14851;51.166;4.760;2023-08-30T06:41:08;10.27;;;7.13;;
27383;SDS011;14851;51.166;4.760;2023-08-30T06:43:34;7.90;;;6.00;;
27383;SDS011;14851;51.166;4.760;2023-08-30T06:46:00;8.73;;;6.10;;
27383;SDS011;14851;51.166;4.760;2023-08-30T06:48:27;10.20;;;6.30;;
27383;SDS011;14851;51.166;4.760;2023-08-30T06:50:52;7.38;;;5.50;;
27383;SDS011;14851;51.166;4.760;2023-08-30T06:53:22;7.40;;;5.20;;
27383;SDS011;14851;51.166;4.760;2023-08-30T06:55:56;6.88;;;5.32;;
27383;SDS011;14851;51.166;4.760;2023-08-30T06:58:22;8.00;;;5.15;;
27383;SDS011;14851;51.166;4.760;2023-08-30T07:00:48;7.35;;;4.63;;
27383;SDS011;14851;51.166;4.760;2023-08-30T07:03:19;6.78;;;5.55;;
27383;SDS011;14851;51.166;4.760;2023-08-30T07:05:44;6.88;;;5.40;;
27383;SDS011;14851;51.166;4.760;2023-08-30T07:08:15;5.80;;;5.20;;
27383;SDS011;14851;51.166;4.760;2023-08-30T07:10:43;5.90;;;4.85;;
27383;SDS011;14851;51.166;4.760;2023-08-30T07:13:09;7.40;;;5.43;;
27383;SDS011;14851;51.166;4.760;2023-08-30T07:15:38;5.63;;;4.90;;
27383;SDS011;14851;51.166;4.760;2023-08-30T07:18:05;7.60;;;4.78;;
27383;SDS011;14851;51.166;4.760;2023-08-30T07:20:31;6.72;;;5.50;;
27383;SDS011;14851;51.166;4.760;2023-08-30T07:22:57;7.55;;;5.10;;
27383;SDS011;14851;51.166;4.760;2023-08-30T07:25:26;6.03;;;4.90;;
27383;SDS011;14851;51.166;4.760;2023-08-30T07:27:54;7.35;;;5.25;;
27383;SDS011;14851;51.166;4.760;2023-08-30T07:30:19;8.10;;;5.70;;
27383;SDS011;14851;51.166;4.760;2023-08-30T07:32:45;6.95;;;5.20;;
27383;SDS011;14851;51.166;4.760;2023-08-30T07:35:11;7.45;;;5.78;;
27383;SDS011;14851;51.166;4.760;2023-08-30T07:37:37;6.35;;;5.22;;
27383;SDS011;14851;51.166;4.760;2023-08-30T07:40:05;8.75;;;5.60;;
27383;SDS011;14851;51.166;4.760;2023-08-30T07:42:32;6.15;;;5.25;;
27383;SDS011;14851;51.166;4.760;2023-08-30T07:44:58;7.50;;;5.95;;
27383;SDS011;14851;51.166;4.760;2023-08-30T07:47:23;6.78;;;5.53;;
27383;SDS011;14851;51.166;4.760;2023-08-30T07:49:52;6.63;;;5.53;;
27383;SDS011;14851;51.166;4.760;2023-08-30T07:52:20;8.35;;;6.00;;
27383;SDS011;14851;51.166;4.760;2023-08-30T07:54:46;7.75;;;5.70;;
27383;SDS011;14851;51.166;4.760;2023-08-30T07:57:12;7.32;;;5.97;;
27383;SDS011;14851;51.166;4.760;2023-08-30T07:59:38;7.45;;;6.22;;
27383;SDS011;14851;51.166;4.760;2023-08-30T08:02:05;6.75;;;5.65;;
27383;SDS011;14851;51.166;4.760;2023-08-30T08:04:34;7.95;;;5.60;;
27383;SDS011;14851;51.166;4.760;2023-08-30T08:07:02;8.48;;;5.88;;
27383;SDS011;14851;51.166;4.760;2023-08-30T08:09:31;6.80;;;5.07;;
27383;SDS011;14851;51.166;4.760;2023-08-30T08:11:59;7.47;;;5.50;;
27383;SDS011;14851;51.166;4.760;2023-08-30T08:14:27;6.75;;;6.03;;
27383;SDS011;14851;51.166;4.760;2023-08-30T08:16:53;8.70;;;5.95;;
27383;SDS011;14851;51.166;4.760;2023-08-30T08:19:19;7.03;;;5.90;;
27383;SDS011;14851;51.166;4.760;2023-08-30T08:21:47;6.13;;;5.40;;
27383;SDS011;14851;51.166;4.760;2023-08-30T08:24:14;7.38;;;5.40;;
27383;SDS011;14851;51.166;4.760;2023-08-30T08:26:40;6.45;;;5.40;;
27383;SDS011;14851;51.166;4.760;2023-08-30T08:29:06;7.15;;;5.88;;
27383;SDS011;14851;51.166;4.760;2023-08-30T08:31:32;6.97;;;5.43;;
27383;SDS011;14851;51.166;4.760;2023-08-30T08:34:10;6.03;;;5.22;;
27383;SDS011;14851;51.166;4.760;2023-08-30T08:36:42;7.72;;;4.80;;
27383;SDS011;14851;51.166;4.760;2023-08-30T08:39:08;6.70;;;5.28;;
27383;SDS011;14851;51.166;4.760;2023-08-30T08:41:36;7.60;;;5.13;;
27383;SDS011;14851;51.166;4.760;2023-08-30T08:44:07;7.40;;;5.93;;
27383;SDS011;14851;51.166;4.760;2023-08-30T08:46:37;7.00;;;5.60;;
27383;SDS011;14851;51.166;4.760;2023-08-30T08:49:08;6.20;;;5.05;;
27383;SDS011;14851;51.166;4.760;2023-08-30T08:51:42;7.05;;;5.72;;
27383;SDS011;14851;51.166;4.760;2023-08-30T08:54:11;6.97;;;5.47;;
27383;SDS011;14851;51.166;4.760;2023-08-30T08:56:39;6.57;;;5.53;;
27383;SDS011;14851;51.166;4.760;2023-08-30T08:59:06;6.70;;;5.88;;
27383;SDS011;14851;51.166;4.760;2023-08-30T09:01:34;9.45;;;5.97;;
27383;SDS011;14851;51.166;4.760;2023-08-30T09:04:09;7.20;;;5.82;;
27383;SDS011;14851;51.166;4.760;2023-08-30T09:06:37;7.05;;;6.10;;
27383;SDS011;14851;51.166;4.760;2023-08-30T09:09:11;9.35;;;5.60;;
27383;SDS011;14851;51.166;4.760;2023-08-30T09:11:39;7.63;;;6.68;;
27383;SDS011;14851;51.166;4.760;2023-08-30T09:14:06;10.18;;;6.43;;
27383;SDS011;14851;51.166;4.760;2023-08-30T09:16:37;10.90;;;6.85;;
27383;SDS011;14851;51.166;4.760;2023-08-30T09:19:07;7.47;;;6.10;;
27383;SDS011;14851;51.166;4.760;2023-08-30T09:21:36;8.27;;;6.43;;
27383;SDS011;14851;51.166;4.760;2023-08-30T09:24:06;7.57;;;6.15;;
27383;SDS011;14851;51.166;4.760;2023-08-30T09:26:34;8.77;;;7.05;;
27383;SDS011;14851;51.166;4.760;2023-08-30T09:31:32;10.18;;;7.28;;
27383;SDS011;14851;51.166;4.760;2023-08-30T09:33:59;9.18;;;7.07;;
27383;SDS011;14851;51.166;4.760;2023-08-30T09:36:32;8.82;;;7.10;;
27383;SDS011;14851;51.166;4.760;2023-08-30T09:39:12;8.18;;;7.30;;
27383;SDS011;14851;51.166;4.760;2023-08-30T09:41:45;9.63;;;8.00;;
27383;SDS011;14851;51.166;4.760;2023-08-30T09:44:13;9.18;;;8.10;;
27383;SDS011;14851;51.166;4.760;2023-08-30T09:46:51;9.32;;;7.93;;
27383;SDS011;14851;51.166;4.760;2023-08-30T09:49:23;9.48;;;7.55;;
27383;SDS011;14851;51.166;4.760;2023-08-30T09:51:52;8.75;;;7.88;;
27383;SDS011;14851;51.166;4.760;2023-08-30T09:54:22;9.15;;;8.10;;
27383;SDS011;14851;51.166;4.760;2023-08-30T09:56:50;8.70;;;7.80;;
27383;SDS011;14851;51.166;4.760;2023-08-30T09:59:19;9.35;;;8.45;;
27383;SDS011;14851;51.166;4.760;2023-08-30T10:01:46;10.63;;;9.27;;
27383;SDS011;14851;51.166;4.760;2023-08-30T10:04:13;10.25;;;9.00;;
27383;SDS011;14851;51.166;4.760;2023-08-30T10:06:40;9.82;;;8.82;;
27383;SDS011;14851;51.166;4.760;2023-08-30T10:09:07;9.55;;;8.68;;
27383;SDS011;14851;51.166;4.760;2023-08-30T10:11:37;10.70;;;9.52;;
27383;SDS011;14851;51.166;4.760;2023-08-30T10:14:06;11.17;;;10.07;;
27383;SDS011;14851;51.166;4.760;2023-08-30T10:16:37;10.60;;;9.00;;
27383;SDS011;14851;51.166;4.760;2023-08-30T10:21:47;13.07;;;9.60;;
27383;SDS011;14851;51.166;4.760;2023-08-30T10:24:19;9.88;;;8.88;;
27383;SDS011;14851;51.166;4.760;2023-08-30T10:26:46;9.60;;;8.57;;
27383;SDS011;14851;51.166;4.760;2023-08-30T10:29:13;8.02;;;7.25;;
27383;SDS011;14851;51.166;4.760;2023-08-30T10:31:43;9.60;;;7.65;;
27383;SDS011;14851;51.166;4.760;2023-08-30T10:34:13;8.45;;;7.53;;
27383;SDS011;14851;51.166;4.760;2023-08-30T10:36:44;10.30;;;8.18;;
27383;SDS011;14851;51.166;4.760;2023-08-30T10:39:14;8.27;;;7.47;;
27383;SDS011;14851;51.166;4.760;2023-08-30T10:41:55;8.43;;;7.50;;
27383;SDS011;14851;51.166;4.760;2023-08-30T10:44:22;8.77;;;7.47;;
27383;SDS011;14851;51.166;4.760;2023-08-30T10:46:55;11.57;;;8.23;;
27383;SDS011;14851;51.166;4.760;2023-08-30T10:49:22;8.95;;;7.75;;
27383;SDS011;14851;51.166;4.760;2023-08-30T10:51:55;8.32;;;7.53;;
27383;SDS011;14851;51.166;4.760;2023-08-30T10:54:36;9.77;;;8.38;;
27383;SDS011;14851;51.166;4.760;2023-08-30T10:57:12;9.00;;;7.57;;
27383;SDS011;14851;51.166;4.760;2023-08-30T10:59:38;8.45;;;7.30;;
27383;SDS011;14851;51.166;4.760;2023-08-30T11:02:05;8.70;;;6.93;;
27383;SDS011;14851;51.166;4.760;2023-08-30T11:04:32;7.85;;;7.05;;
27383;SDS011;14851;51.166;4.760;2023-08-30T11:07:00;9.43;;;7.88;;
27383;SDS011;14851;51.166;4.760;2023-08-30T11:09:26;8.57;;;6.60;;
27383;SDS011;14851;51.166;4.760;2023-08-30T11:11:55;9.43;;;6.35;;
27383;SDS011;14851;51.166;4.760;2023-08-30T11:14:23;7.95;;;6.22;;
27383;SDS011;14851;51.166;4.760;2023-08-30T11:16:49;7.25;;;5.35;;
27383;SDS011;14851;51.166;4.760;2023-08-30T11:19:15;6.60;;;4.95;;
27383;SDS011;14851;51.166;4.760;2023-08-30T11:21:44;8.73;;;5.25;;
27383;SDS011;14851;51.166;4.760;2023-08-30T11:24:11;7.82;;;5.13;;
27383;SDS011;14851;51.166;4.760;2023-08-30T11:26:37;7.97;;;5.20;;
27383;SDS011;14851;51.166;4.760;2023-08-30T11:29:05;6.10;;;4.80;;
27383;SDS011;14851;51.166;4.760;2023-08-30T11:31:32;5.18;;;3.60;;
27383;SDS011;14851;51.166;4.760;2023-08-30T11:33:59;6.78;;;3.08;;
27383;SDS011;14851;51.166;4.760;2023-08-30T11:36:26;8.45;;;3.15;;
27383;SDS011;14851;51.166;4.760;2023-08-30T11:38:55;10.23;;;3.50;;
27383;SDS011;14851;51.166;4.760;2023-08-30T11:41:22;4.88;;;2.45;;
27383;SDS011;14851;51.166;4.760;2023-08-30T11:43:52;4.63;;;2.00;;
27383;SDS011;14851;51.166;4.760;2023-08-30T11:46:20;6.75;;;2.25;;
27383;SDS011;14851;51.166;4.760;2023-08-30T11:48:49;5.93;;;2.20;;
27383;SDS011;14851;51.166;4.760;2023-08-30T11:51:17;5.32;;;2.00;;
27383;SDS011;14851;51.166;4.760;2023-08-30T11:53:44;8.43;;;1.88;;
27383;SDS011;14851;51.166;4.760;2023-08-30T11:56:11;6.97;;;2.17;;
27383;SDS011;14851;51.166;4.760;2023-08-30T11:58:39;8.00;;;2.10;;
27383;SDS011;14851;51.166;4.760;2023-08-30T12:01:08;7.90;;;2.20;;
27383;SDS011;14851;51.166;4.760;2023-08-30T12:03:34;7.32;;;2.28;;
27383;SDS011;14851;51.166;4.760;2023-08-30T12:06:01;4.78;;;1.90;;
27383;SDS011;14851;51.166;4.760;2023-08-30T12:08:36;5.18;;;2.00;;
27383;SDS011;14851;51.166;4.760;2023-08-30T12:11:02;3.78;;;1.70;;
27383;SDS011;14851;51.166;4.760;2023-08-30T12:13:31;7.85;;;2.35;;
27383;SDS011;14851;51.166;4.760;2023-08-30T12:15:58;6.07;;;2.25;;
27383;SDS011;14851;51.166;4.760;2023-08-30T12:18:32;9.38;;;2.33;;
27383;SDS011;14851;51.166;4.760;2023-08-30T12:21:02;6.38;;;2.00;;
27383;SDS011;14851;51.166;4.760;2023-08-30T12:23:31;7.78;;;1.60;;
27383;SDS011;14851;51.166;4.760;2023-08-30T12:26:06;6.80;;;1.45;;
27383;SDS011;14851;51.166;4.760;2023-08-30T12:28:35;6.88;;;1.73;;
27383;SDS011;14851;51.166;4.760;2023-08-30T12:31:05;4.53;;;1.52;;
27383;SDS011;14851;51.166;4.760;2023-08-30T12:33:34;7.82;;;2.10;;
27383;SDS011;14851;51.166;4.760;2023-08-30T12:36:01;5.28;;;1.40;;
27383;SDS011;14851;51.166;4.760;2023-08-30T12:38:27;4.18;;;1.35;;
27383;SDS011;14851;51.166;4.760;2023-08-30T12:40:53;2.95;;;1.33;;
27383;SDS011;14851;51.166;4.760;2023-08-30T12:43:22;7.17;;;2.03;;
27383;SDS011;14851;51.166;4.760;2023-08-30T12:45:49;6.40;;;1.95;;
27383;SDS011;14851;51.166;4.760;2023-08-30T12:48:16;6.75;;;1.90;;
27383;SDS011;14851;51.166;4.760;2023-08-30T12:50:44;9.25;;;1.50;;
27383;SDS011;14851;51.166;4.760;2023-08-30T12:53:13;5.93;;;1.50;;
27383;SDS011;14851;51.166;4.760;2023-08-30T12:55:44;5.85;;;1.40;;
27383;SDS011;14851;51.166;4.760;2023-08-30T12:58:10;4.60;;;1.60;;
27383;SDS011;14851;51.166;4.760;2023-08-30T13:00:36;4.63;;;1.35;;
27383;SDS011;14851;51.166;4.760;2023-08-30T13:03:03;5.35;;;1.65;;
27383;SDS011;14851;51.166;4.760;2023-08-30T13:05:29;6.85;;;2.15;;
27383;SDS011;14851;51.166;4.760;2023-08-30T13:07:59;4.95;;;1.58;;
27383;SDS011;14851;51.166;4.760;2023-08-30T13:10:28;7.22;;;1.92;;
27383;SDS011;14851;51.166;4.760;2023-08-30T13:12:54;5.80;;;1.50;;
27383;SDS011;14851;51.166;4.760;2023-08-30T13:15:20;4.35;;;1.30;;
27383;SDS011;14851;51.166;4.760;2023-08-30T13:17:46;4.80;;;1.48;;
27383;SDS011;14851;51.166;4.760;2023-08-30T13:20:12;8.55;;;1.40;;
27383;SDS011;14851;51.166;4.760;2023-08-30T13:22:38;7.18;;;2.30;;
27383;SDS011;14851;51.166;4.760;2023-08-30T13:25:05;9.15;;;1.63;;
27383;SDS011;14851;51.166;4.760;2023-08-30T13:27:34;5.15;;;1.25;;
27383;SDS011;14851;51.166;4.760;2023-08-30T13:30:03;4.28;;;1.55;;
27383;SDS011;14851;51.166;4.760;2023-08-30T13:32:29;6.30;;;1.48;;
27383;SDS011;14851;51.166;4.760;2023-08-30T13:34:58;4.53;;;1.63;;
27383;SDS011;14851;51.166;4.760;2023-08-30T13:37:26;6.13;;;1.33;;
27383;SDS011;14851;51.166;4.760;2023-08-30T13:39:52;9.35;;;1.58;;
27383;SDS011;14851;51.166;4.760;2023-08-30T13:42:19;7.72;;;1.65;;
27383;SDS011;14851;51.166;4.760;2023-08-30T13:44:49;8.48;;;1.80;;
27383;SDS011;14851;51.166;4.760;2023-08-30T13:47:16;3.70;;;1.30;;
27383;SDS011;14851;51.166;4.760;2023-08-30T13:49:45;4.82;;;1.08;;
27383;SDS011;14851;51.166;4.760;2023-08-30T13:52:13;2.95;;;1.10;;
27383;SDS011;14851;51.166;4.760;2023-08-30T13:54:41;6.60;;;1.92;;
27383;SDS011;14851;51.166;4.760;2023-08-30T13:57:08;6.68;;;1.40;;
27383;SDS011;14851;51.166;4.760;2023-08-30T13:59:36;5.43;;;1.80;;
27383;SDS011;14851;51.166;4.760;2023-08-30T14:02:02;8.32;;;3.22;;
27383;SDS011;14851;51.166;4.760;2023-08-30T14:04:29;4.85;;;1.48;;
27383;SDS011;14851;51.166;4.760;2023-08-30T14:06:57;14.80;;;9.15;;
27383;SDS011;14851;51.166;4.760;2023-08-30T14:09:23;4.57;;;1.20;;
27383;SDS011;14851;51.166;4.760;2023-08-30T14:11:50;4.93;;;3.45;;
27383;SDS011;14851;51.166;4.760;2023-08-30T14:14:17;7.03;;;1.95;;
27383;SDS011;14851;51.166;4.760;2023-08-30T14:16:48;4.43;;;1.10;;
27383;SDS011;14851;51.166;4.760;2023-08-30T14:19:14;8.00;;;1.50;;
27383;SDS011;14851;51.166;4.760;2023-08-30T14:21:43;5.13;;;1.42;;
27383;SDS011;14851;51.166;4.760;2023-08-30T14:24:11;3.70;;;0.88;;
27383;SDS011;14851;51.166;4.760;2023-08-30T14:26:37;5.18;;;1.13;;
27383;SDS011;14851;51.166;4.760;2023-08-30T14:29:06;4.45;;;0.90;;
27383;SDS011;14851;51.166;4.760;2023-08-30T14:31:36;4.65;;;1.02;;
27383;SDS011;14851;51.166;4.760;2023-08-30T14:34:04;2.85;;;0.80;;
27383;SDS011;14851;51.166;4.760;2023-08-30T14:36:33;2.35;;;0.82;;
27383;SDS011;14851;51.166;4.760;2023-08-30T14:39:00;3.72;;;0.80;;
27383;SDS011;14851;51.166;4.760;2023-08-30T14:41:26;5.45;;;0.82;;
27383;SDS011;14851;51.166;4.760;2023-08-30T14:43:56;5.28;;;0.90;;
27383;SDS011;14851;51.166;4.760;2023-08-30T14:46:22;3.17;;;0.88;;
27383;SDS011;14851;51.166;4.760;2023-08-30T14:48:48;3.30;;;0.70;;
27383;SDS011;14851;51.166;4.760;2023-08-30T14:51:13;5.07;;;1.10;;
27383;SDS011;14851;51.166;4.760;2023-08-30T14:53:39;1.90;;;0.80;;
27383;SDS011;14851;51.166;4.760;2023-08-30T14:56:08;6.20;;;1.58;;
27383;SDS011;14851;51.166;4.760;2023-08-30T14:58:37;5.00;;;1.42;;
27383;SDS011;14851;51.166;4.760;2023-08-30T15:01:03;7.53;;;1.20;;
27383;SDS011;14851;51.166;4.760;2023-08-30T15:03:32;4.68;;;1.15;;